sensor_id;sensor_type;location;lat;lon;timestamp;P1;durP1;ratioP1;P2;durP2;ratioP2
81952;SDS011;71454;55.476;14.282;2023-07-29T00:00:37;5.05;;;1.77;;
81952;SDS011;71454;55.476;14.282;2023-07-29T00:03:03;7.78;;;2.10;;
81952;SDS011;71454;55.476;14.282;2023-07-29T00:05:28;5.78;;;2.10;;
81952;SDS011;71454;55.476;14.282;2023-07-29T00:07:54;5.53;;;2.00;;
81952;SDS011;71454;55.476;14.282;2023-07-29T00:10:19;6.35;;;1.75;;
81952;SDS011;71454;55.476;14.282;2023-07-29T00:12:45;5.88;;;1.85;;
81952;SDS011;71454;55.476;14.282;2023-07-29T00:15:11;5.53;;;1.63;;
81952;SDS011;71454;55.476;14.282;2023-07-29T00:17:36;5.25;;;1.85;;
81952;SDS011;71454;55.476;14.282;2023-07-29T00:20:02;6.13;;;1.77;;
81952;SDS011;71454;55.476;14.282;2023-07-29T00:22:28;6.47;;;1.90;;
81952;SDS011;71454;55.476;14.282;2023-07-29T00:24:53;5.57;;;2.40;;
81952;SDS011;71454;55.476;14.282;2023-07-29T00:27:22;5.55;;;2.10;;
81952;SDS011;71454;55.476;14.282;2023-07-29T00:29:48;7.25;;;2.30;;
81952;SDS011;71454;55.476;14.282;2023-07-29T00:32:14;6.00;;;2.65;;
81952;SDS011;71454;55.476;14.282;2023-07-29T00:34:39;6.22;;;2.30;;
81952;SDS011;71454;55.476;14.282;2023-07-29T00:37:04;5.63;;;2.33;;
81952;SDS011;71454;55.476;14.282;2023-07-29T00:39:31;6.60;;;2.38;;
81952;SDS011;71454;55.476;14.282;2023-07-29T00:41:56;6.82;;;2.33;;
81952;SDS011;71454;55.476;14.282;2023-07-29T00:44:22;8.32;;;2.22;;
81952;SDS011;71454;55.476;14.282;2023-07-29T00:46:47;5.28;;;2.00;;
81952;SDS011;71454;55.476;14.282;2023-07-29T00:49:15;5.43;;;1.90;;
81952;SDS011;71454;55.476;14.282;2023-07-29T00:51:40;6.72;;;2.72;;
81952;SDS011;71454;55.476;14.282;2023-07-29T00:54:06;5.78;;;2.10;;
81952;SDS011;71454;55.476;14.282;2023-07-29T00:56:31;5.53;;;2.00;;
81952;SDS011;71454;55.476;14.282;2023-07-29T00:58:56;7.57;;;2.60;;
81952;SDS011;71454;55.476;14.282;2023-07-29T01:01:26;6.38;;;2.13;;
81952;SDS011;71454;55.476;14.282;2023-07-29T01:03:52;6.53;;;2.28;;
81952;SDS011;71454;55.476;14.282;2023-07-29T01:09:28;5.80;;;2.25;;
81952;SDS011;71454;55.476;14.282;2023-07-29T01:12:01;6.90;;;2.97;;
81952;SDS011;71454;55.476;14.282;2023-07-29T01:17:33;6.72;;;2.28;;
81952;SDS011;71454;55.476;14.282;2023-07-29T01:22:30;5.80;;;2.10;;
81952;SDS011;71454;55.476;14.282;2023-07-29T01:24:57;6.63;;;2.30;;
81952;SDS011;71454;55.476;14.282;2023-07-29T01:27:23;7.63;;;2.50;;
81952;SDS011;71454;55.476;14.282;2023-07-29T01:29:49;6.75;;;2.28;;
81952;SDS011;71454;55.476;14.282;2023-07-29T01:32:16;7.70;;;2.13;;
81952;SDS011;71454;55.476;14.282;2023-07-29T01:34:45;5.93;;;2.25;;
81952;SDS011;71454;55.476;14.282;2023-07-29T01:37:15;7.40;;;2.47;;
81952;SDS011;71454;55.476;14.282;2023-07-29T01:39:44;6.20;;;2.60;;
81952;SDS011;71454;55.476;14.282;2023-07-29T01:42:10;7.40;;;2.45;;
81952;SDS011;71454;55.476;14.282;2023-07-29T01:44:36;6.55;;;2.50;;
81952;SDS011;71454;55.476;14.282;2023-07-29T01:47:02;5.93;;;2.30;;
81952;SDS011;71454;55.476;14.282;2023-07-29T01:49:27;6.18;;;2.42;;
81952;SDS011;71454;55.476;14.282;2023-07-29T01:51:52;6.45;;;2.90;;
81952;SDS011;71454;55.476;14.282;2023-07-29T01:54:18;6.30;;;2.50;;
81952;SDS011;71454;55.476;14.282;2023-07-29T01:56:43;5.78;;;2.05;;
81952;SDS011;71454;55.476;14.282;2023-07-29T01:59:09;5.90;;;2.35;;
81952;SDS011;71454;55.476;14.282;2023-07-29T02:01:34;6.07;;;2.30;;
81952;SDS011;71454;55.476;14.282;2023-07-29T02:03:59;6.40;;;2.40;;
81952;SDS011;71454;55.476;14.282;2023-07-29T02:06:25;6.20;;;1.90;;
81952;SDS011;71454;55.476;14.282;2023-07-29T02:08:51;8.75;;;2.22;;
81952;SDS011;71454;55.476;14.282;2023-07-29T02:11:17;6.63;;;2.53;;
81952;SDS011;71454;55.476;14.282;2023-07-29T02:13:45;6.63;;;2.17;;
81952;SDS011;71454;55.476;14.282;2023-07-29T02:16:10;7.03;;;2.55;;
81952;SDS011;71454;55.476;14.282;2023-07-29T02:18:36;7.20;;;2.90;;
81952;SDS011;71454;55.476;14.282;2023-07-29T02:21:01;6.65;;;2.65;;
81952;SDS011;71454;55.476;14.282;2023-07-29T02:23:26;7.90;;;2.58;;
81952;SDS011;71454;55.476;14.282;2023-07-29T02:25:52;6.85;;;2.35;;
81952;SDS011;71454;55.476;14.282;2023-07-29T02:28:17;5.63;;;2.22;;
81952;SDS011;71454;55.476;14.282;2023-07-29T02:30:43;6.72;;;2.10;;
81952;SDS011;71454;55.476;14.282;2023-07-29T02:33:11;7.25;;;2.80;;
81952;SDS011;71454;55.476;14.282;2023-07-29T02:35:36;7.03;;;2.55;;
81952;SDS011;71454;55.476;14.282;2023-07-29T02:38:01;6.72;;;2.80;;
81952;SDS011;71454;55.476;14.282;2023-07-29T02:40:27;7.22;;;2.70;;
81952;SDS011;71454;55.476;14.282;2023-07-29T02:42:54;6.25;;;2.90;;
81952;SDS011;71454;55.476;14.282;2023-07-29T02:45:22;6.65;;;2.83;;
81952;SDS011;71454;55.476;14.282;2023-07-29T02:47:47;6.22;;;2.85;;
81952;SDS011;71454;55.476;14.282;2023-07-29T02:50:13;8.05;;;2.80;;
81952;SDS011;71454;55.476;14.282;2023-07-29T02:52:38;7.25;;;3.15;;
81952;SDS011;71454;55.476;14.282;2023-07-29T02:55:06;6.10;;;2.65;;
81952;SDS011;71454;55.476;14.282;2023-07-29T02:57:31;6.85;;;2.90;;
81952;SDS011;71454;55.476;14.282;2023-07-29T02:59:57;6.40;;;2.50;;
81952;SDS011;71454;55.476;14.282;2023-07-29T03:02:22;5.93;;;2.33;;
81952;SDS011;71454;55.476;14.282;2023-07-29T03:04:48;5.90;;;2.42;;
81952;SDS011;71454;55.476;14.282;2023-07-29T03:07:13;7.30;;;2.60;;
81952;SDS011;71454;55.476;14.282;2023-07-29T03:09:39;5.50;;;2.03;;
81952;SDS011;71454;55.476;14.282;2023-07-29T03:12:06;5.80;;;2.05;;
81952;SDS011;71454;55.476;14.282;2023-07-29T03:14:32;5.20;;;2.20;;
81952;SDS011;71454;55.476;14.282;2023-07-29T03:16:58;6.55;;;2.33;;
81952;SDS011;71454;55.476;14.282;2023-07-29T03:19:27;5.65;;;2.10;;
81952;SDS011;71454;55.476;14.282;2023-07-29T03:21:53;6.00;;;1.80;;
81952;SDS011;71454;55.476;14.282;2023-07-29T03:24:18;5.22;;;1.80;;
81952;SDS011;71454;55.476;14.282;2023-07-29T03:26:43;5.78;;;2.10;;
81952;SDS011;71454;55.476;14.282;2023-07-29T03:29:09;5.10;;;1.90;;
81952;SDS011;71454;55.476;14.282;2023-07-29T03:31:34;5.93;;;1.73;;
81952;SDS011;71454;55.476;14.282;2023-07-29T03:33:59;5.45;;;1.88;;
81952;SDS011;71454;55.476;14.282;2023-07-29T03:36:25;5.53;;;1.80;;
81952;SDS011;71454;55.476;14.282;2023-07-29T03:38:51;5.90;;;2.13;;
81952;SDS011;71454;55.476;14.282;2023-07-29T03:41:16;5.82;;;1.85;;
81952;SDS011;71454;55.476;14.282;2023-07-29T03:43:42;5.80;;;1.85;;
81952;SDS011;71454;55.476;14.282;2023-07-29T03:46:08;5.75;;;2.10;;
81952;SDS011;71454;55.476;14.282;2023-07-29T03:48:33;5.15;;;1.83;;
81952;SDS011;71454;55.476;14.282;2023-07-29T03:50:58;10.75;;;2.13;;
81952;SDS011;71454;55.476;14.282;2023-07-29T03:53:24;4.85;;;1.60;;
81952;SDS011;71454;55.476;14.282;2023-07-29T03:55:50;6.00;;;1.80;;
81952;SDS011;71454;55.476;14.282;2023-07-29T03:58:15;5.10;;;2.00;;
81952;SDS011;71454;55.476;14.282;2023-07-29T04:00:41;5.32;;;1.77;;
81952;SDS011;71454;55.476;14.282;2023-07-29T04:03:06;5.80;;;1.95;;
81952;SDS011;71454;55.476;14.282;2023-07-29T04:05:32;5.60;;;1.75;;
81952;SDS011;71454;55.476;14.282;2023-07-29T04:07:57;6.43;;;1.90;;
81952;SDS011;71454;55.476;14.282;2023-07-29T04:10:23;4.95;;;1.60;;
81952;SDS011;71454;55.476;14.282;2023-07-29T04:12:48;7.13;;;2.05;;
81952;SDS011;71454;55.476;14.282;2023-07-29T04:15:14;5.20;;;1.80;;
81952;SDS011;71454;55.476;14.282;2023-07-29T04:17:39;6.13;;;1.73;;
81952;SDS011;71454;55.476;14.282;2023-07-29T04:20:05;5.47;;;1.70;;
81952;SDS011;71454;55.476;14.282;2023-07-29T04:22:33;6.05;;;1.77;;
81952;SDS011;71454;55.476;14.282;2023-07-29T04:24:58;5.88;;;1.70;;
81952;SDS011;71454;55.476;14.282;2023-07-29T04:27:24;5.85;;;1.92;;
81952;SDS011;71454;55.476;14.282;2023-07-29T04:29:50;5.40;;;2.08;;
81952;SDS011;71454;55.476;14.282;2023-07-29T04:32:15;5.57;;;2.00;;
81952;SDS011;71454;55.476;14.282;2023-07-29T04:34:41;6.68;;;2.53;;
81952;SDS011;71454;55.476;14.282;2023-07-29T04:37:06;5.50;;;2.00;;
81952;SDS011;71454;55.476;14.282;2023-07-29T04:39:32;5.30;;;1.88;;
81952;SDS011;71454;55.476;14.282;2023-07-29T04:41:58;6.00;;;2.08;;
81952;SDS011;71454;55.476;14.282;2023-07-29T04:44:23;5.18;;;1.75;;
81952;SDS011;71454;55.476;14.282;2023-07-29T04:46:49;5.22;;;1.70;;
81952;SDS011;71454;55.476;14.282;2023-07-29T04:49:14;5.28;;;1.70;;
81952;SDS011;71454;55.476;14.282;2023-07-29T04:51:40;4.43;;;1.38;;
81952;SDS011;71454;55.476;14.282;2023-07-29T04:54:05;6.43;;;1.48;;
81952;SDS011;71454;55.476;14.282;2023-07-29T04:56:30;5.07;;;1.40;;
81952;SDS011;71454;55.476;14.282;2023-07-29T04:58:56;4.53;;;1.50;;
81952;SDS011;71454;55.476;14.282;2023-07-29T05:01:21;5.05;;;1.50;;
81952;SDS011;71454;55.476;14.282;2023-07-29T05:03:46;5.13;;;1.27;;
81952;SDS011;71454;55.476;14.282;2023-07-29T05:06:12;4.20;;;1.42;;
81952;SDS011;71454;55.476;14.282;2023-07-29T05:08:37;4.05;;;1.20;;
81952;SDS011;71454;55.476;14.282;2023-07-29T05:11:03;4.50;;;1.50;;
81952;SDS011;71454;55.476;14.282;2023-07-29T05:13:28;5.85;;;1.50;;
81952;SDS011;71454;55.476;14.282;2023-07-29T05:15:53;4.25;;;1.48;;
81952;SDS011;71454;55.476;14.282;2023-07-29T05:18:19;4.97;;;1.58;;
81952;SDS011;71454;55.476;14.282;2023-07-29T05:20:45;4.13;;;1.40;;
81952;SDS011;71454;55.476;14.282;2023-07-29T05:23:11;5.45;;;1.52;;
81952;SDS011;71454;55.476;14.282;2023-07-29T05:25:37;4.78;;;1.60;;
81952;SDS011;71454;55.476;14.282;2023-07-29T05:28:02;4.95;;;1.65;;
81952;SDS011;71454;55.476;14.282;2023-07-29T05:30:28;4.80;;;1.70;;
81952;SDS011;71454;55.476;14.282;2023-07-29T05:32:57;5.07;;;1.63;;
81952;SDS011;71454;55.476;14.282;2023-07-29T05:35:23;4.57;;;1.60;;
81952;SDS011;71454;55.476;14.282;2023-07-29T05:37:48;4.63;;;1.88;;
81952;SDS011;71454;55.476;14.282;2023-07-29T05:40:14;5.07;;;1.83;;
81952;SDS011;71454;55.476;14.282;2023-07-29T05:42:40;7.05;;;2.00;;
81952;SDS011;71454;55.476;14.282;2023-07-29T05:45:06;5.50;;;1.90;;
81952;SDS011;71454;55.476;14.282;2023-07-29T05:47:32;5.68;;;2.30;;
81952;SDS011;71454;55.476;14.282;2023-07-29T05:49:57;6.65;;;2.30;;
81952;SDS011;71454;55.476;14.282;2023-07-29T05:52:22;6.28;;;2.40;;
81952;SDS011;71454;55.476;14.282;2023-07-29T05:54:48;7.22;;;2.35;;
81952;SDS011;71454;55.476;14.282;2023-07-29T05:57:13;5.85;;;2.60;;
81952;SDS011;71454;55.476;14.282;2023-07-29T05:59:39;7.10;;;2.67;;
81952;SDS011;71454;55.476;14.282;2023-07-29T06:02:04;5.88;;;2.38;;
81952;SDS011;71454;55.476;14.282;2023-07-29T06:04:30;6.20;;;2.67;;
81952;SDS011;71454;55.476;14.282;2023-07-29T06:06:55;7.40;;;2.70;;
81952;SDS011;71454;55.476;14.282;2023-07-29T06:09:21;6.78;;;3.00;;
81952;SDS011;71454;55.476;14.282;2023-07-29T06:11:47;8.48;;;3.42;;
81952;SDS011;71454;55.476;14.282;2023-07-29T06:14:12;7.43;;;3.65;;
81952;SDS011;71454;55.476;14.282;2023-07-29T06:16:38;9.68;;;3.72;;
81952;SDS011;71454;55.476;14.282;2023-07-29T06:19:03;8.93;;;4.35;;
81952;SDS011;71454;55.476;14.282;2023-07-29T06:21:29;11.05;;;6.30;;
81952;SDS011;71454;55.476;14.282;2023-07-29T06:23:54;12.10;;;6.80;;
81952;SDS011;71454;55.476;14.282;2023-07-29T06:26:20;12.98;;;7.15;;
81952;SDS011;71454;55.476;14.282;2023-07-29T06:28:45;12.65;;;7.13;;
81952;SDS011;71454;55.476;14.282;2023-07-29T06:31:10;12.93;;;6.78;;
81952;SDS011;71454;55.476;14.282;2023-07-29T06:33:36;14.13;;;7.75;;
81952;SDS011;71454;55.476;14.282;2023-07-29T06:36:01;11.52;;;6.35;;
81952;SDS011;71454;55.476;14.282;2023-07-29T06:38:27;10.10;;;5.90;;
81952;SDS011;71454;55.476;14.282;2023-07-29T06:40:52;14.07;;;6.68;;
81952;SDS011;71454;55.476;14.282;2023-07-29T06:43:17;11.38;;;6.25;;
81952;SDS011;71454;55.476;14.282;2023-07-29T06:45:43;13.52;;;7.15;;
81952;SDS011;71454;55.476;14.282;2023-07-29T06:48:08;13.02;;;6.38;;
81952;SDS011;71454;55.476;14.282;2023-07-29T06:50:34;11.20;;;6.60;;
81952;SDS011;71454;55.476;14.282;2023-07-29T06:52:59;11.63;;;6.20;;
81952;SDS011;71454;55.476;14.282;2023-07-29T06:55:24;10.90;;;5.90;;
81952;SDS011;71454;55.476;14.282;2023-07-29T06:57:50;10.57;;;5.40;;
81952;SDS011;71454;55.476;14.282;2023-07-29T07:00:15;9.75;;;4.60;;
81952;SDS011;71454;55.476;14.282;2023-07-29T07:02:40;9.73;;;4.80;;
81952;SDS011;71454;55.476;14.282;2023-07-29T07:05:06;9.82;;;4.25;;
81952;SDS011;71454;55.476;14.282;2023-07-29T07:07:32;8.48;;;4.15;;
81952;SDS011;71454;55.476;14.282;2023-07-29T07:09:57;9.13;;;4.10;;
81952;SDS011;71454;55.476;14.282;2023-07-29T07:12:23;9.75;;;4.30;;
81952;SDS011;71454;55.476;14.282;2023-07-29T07:14:48;7.88;;;4.25;;
81952;SDS011;71454;55.476;14.282;2023-07-29T07:17:14;9.25;;;5.05;;
81952;SDS011;71454;55.476;14.282;2023-07-29T07:19:39;7.78;;;3.92;;
81952;SDS011;71454;55.476;14.282;2023-07-29T07:22:05;7.55;;;3.92;;
81952;SDS011;71454;55.476;14.282;2023-07-29T07:24:30;8.45;;;4.78;;
81952;SDS011;71454;55.476;14.282;2023-07-29T07:26:56;8.23;;;3.90;;
81952;SDS011;71454;55.476;14.282;2023-07-29T07:29:21;7.32;;;3.72;;
81952;SDS011;71454;55.476;14.282;2023-07-29T07:31:51;7.78;;;4.22;;
81952;SDS011;71454;55.476;14.282;2023-07-29T07:34:17;7.00;;;3.60;;
81952;SDS011;71454;55.476;14.282;2023-07-29T07:36:43;6.78;;;3.42;;
81952;SDS011;71454;55.476;14.282;2023-07-29T07:39:09;8.07;;;3.30;;
81952;SDS011;71454;55.476;14.282;2023-07-29T07:41:34;7.22;;;3.47;;
81952;SDS011;71454;55.476;14.282;2023-07-29T07:44:00;6.90;;;3.40;;
81952;SDS011;71454;55.476;14.282;2023-07-29T07:46:25;7.97;;;3.60;;
81952;SDS011;71454;55.476;14.282;2023-07-29T07:48:50;8.25;;;3.78;;
81952;SDS011;71454;55.476;14.282;2023-07-29T07:51:16;8.43;;;3.33;;
81952;SDS011;71454;55.476;14.282;2023-07-29T07:53:41;8.18;;;3.40;;
81952;SDS011;71454;55.476;14.282;2023-07-29T07:56:07;7.18;;;3.50;;
81952;SDS011;71454;55.476;14.282;2023-07-29T07:58:32;7.65;;;3.40;;
81952;SDS011;71454;55.476;14.282;2023-07-29T08:01:05;7.03;;;3.50;;
81952;SDS011;71454;55.476;14.282;2023-07-29T08:03:31;7.20;;;3.65;;
81952;SDS011;71454;55.476;14.282;2023-07-29T08:05:57;6.20;;;2.97;;
81952;SDS011;71454;55.476;14.282;2023-07-29T08:08:22;7.88;;;3.80;;
81952;SDS011;71454;55.476;14.282;2023-07-29T08:10:47;6.00;;;3.17;;
81952;SDS011;71454;55.476;14.282;2023-07-29T08:13:13;7.10;;;3.60;;
81952;SDS011;71454;55.476;14.282;2023-07-29T08:15:38;6.38;;;3.10;;
81952;SDS011;71454;55.476;14.282;2023-07-29T08:18:04;6.35;;;2.70;;
81952;SDS011;71454;55.476;14.282;2023-07-29T08:20:29;6.50;;;2.95;;
81952;SDS011;71454;55.476;14.282;2023-07-29T08:22:54;7.78;;;2.90;;
81952;SDS011;71454;55.476;14.282;2023-07-29T08:25:20;7.65;;;3.00;;
81952;SDS011;71454;55.476;14.282;2023-07-29T08:27:45;6.60;;;3.20;;
81952;SDS011;71454;55.476;14.282;2023-07-29T08:30:11;7.20;;;3.08;;
81952;SDS011;71454;55.476;14.282;2023-07-29T08:32:36;6.85;;;2.83;;
81952;SDS011;71454;55.476;14.282;2023-07-29T08:35:02;8.50;;;2.90;;
81952;SDS011;71454;55.476;14.282;2023-07-29T08:37:27;7.28;;;2.97;;
81952;SDS011;71454;55.476;14.282;2023-07-29T08:39:53;6.13;;;2.90;;
81952;SDS011;71454;55.476;14.282;2023-07-29T08:42:21;7.03;;;2.83;;
81952;SDS011;71454;55.476;14.282;2023-07-29T08:44:48;6.43;;;2.60;;
81952;SDS011;71454;55.476;14.282;2023-07-29T08:47:14;6.22;;;2.75;;
81952;SDS011;71454;55.476;14.282;2023-07-29T08:49:40;6.10;;;2.70;;
81952;SDS011;71454;55.476;14.282;2023-07-29T08:52:06;7.30;;;2.80;;
81952;SDS011;71454;55.476;14.282;2023-07-29T08:54:32;5.70;;;2.38;;
81952;SDS011;71454;55.476;14.282;2023-07-29T08:56:58;5.97;;;2.45;;
81952;SDS011;71454;55.476;14.282;2023-07-29T08:59:23;6.85;;;2.72;;
81952;SDS011;71454;55.476;14.282;2023-07-29T09:01:49;6.00;;;2.75;;
81952;SDS011;71454;55.476;14.282;2023-07-29T09:04:15;6.40;;;2.80;;
81952;SDS011;71454;55.476;14.282;2023-07-29T09:06:41;6.50;;;2.60;;
81952;SDS011;71454;55.476;14.282;2023-07-29T09:09:08;6.75;;;2.65;;
81952;SDS011;71454;55.476;14.282;2023-07-29T09:11:34;6.80;;;2.35;;
81952;SDS011;71454;55.476;14.282;2023-07-29T09:13:59;5.93;;;2.67;;
81952;SDS011;71454;55.476;14.282;2023-07-29T09:16:25;6.00;;;2.40;;
81952;SDS011;71454;55.476;14.282;2023-07-29T09:18:51;7.05;;;2.75;;
81952;SDS011;71454;55.476;14.282;2023-07-29T09:21:17;5.43;;;2.28;;
81952;SDS011;71454;55.476;14.282;2023-07-29T09:23:44;5.55;;;2.40;;
81952;SDS011;71454;55.476;14.282;2023-07-29T09:26:10;6.72;;;2.50;;
81952;SDS011;71454;55.476;14.282;2023-07-29T09:28:39;5.30;;;2.00;;
81952;SDS011;71454;55.476;14.282;2023-07-29T09:31:05;5.63;;;2.08;;
81952;SDS011;71454;55.476;14.282;2023-07-29T09:33:34;5.55;;;2.10;;
81952;SDS011;71454;55.476;14.282;2023-07-29T09:36:08;5.50;;;2.10;;
81952;SDS011;71454;55.476;14.282;2023-07-29T09:38:34;6.05;;;2.38;;
81952;SDS011;71454;55.476;14.282;2023-07-29T09:41:01;6.53;;;2.47;;
81952;SDS011;71454;55.476;14.282;2023-07-29T09:43:30;5.55;;;2.40;;
81952;SDS011;71454;55.476;14.282;2023-07-29T09:46:03;6.47;;;2.63;;
81952;SDS011;71454;55.476;14.282;2023-07-29T09:48:33;6.47;;;3.03;;
81952;SDS011;71454;55.476;14.282;2023-07-29T09:50:59;6.15;;;2.53;;
81952;SDS011;71454;55.476;14.282;2023-07-29T09:53:25;6.93;;;3.00;;
81952;SDS011;71454;55.476;14.282;2023-07-29T09:55:51;6.13;;;2.30;;
81952;SDS011;71454;55.476;14.282;2023-07-29T09:58:25;7.55;;;2.60;;
81952;SDS011;71454;55.476;14.282;2023-07-29T10:00:51;6.43;;;2.53;;
81952;SDS011;71454;55.476;14.282;2023-07-29T10:03:17;6.03;;;2.85;;
81952;SDS011;71454;55.476;14.282;2023-07-29T10:05:44;6.32;;;2.45;;
81952;SDS011;71454;55.476;14.282;2023-07-29T10:08:10;5.68;;;2.38;;
81952;SDS011;71454;55.476;14.282;2023-07-29T10:10:36;5.57;;;2.58;;
81952;SDS011;71454;55.476;14.282;2023-07-29T10:13:01;6.20;;;2.60;;
81952;SDS011;71454;55.476;14.282;2023-07-29T10:15:27;5.95;;;2.70;;
81952;SDS011;71454;55.476;14.282;2023-07-29T10:17:53;5.18;;;2.42;;
81952;SDS011;71454;55.476;14.282;2023-07-29T10:20:19;6.55;;;2.45;;
81952;SDS011;71454;55.476;14.282;2023-07-29T10:22:45;6.05;;;2.53;;
81952;SDS011;71454;55.476;14.282;2023-07-29T10:25:19;5.75;;;2.58;;
81952;SDS011;71454;55.476;14.282;2023-07-29T10:27:48;6.68;;;2.60;;
81952;SDS011;71454;55.476;14.282;2023-07-29T10:30:15;5.68;;;2.63;;
81952;SDS011;71454;55.476;14.282;2023-07-29T10:32:43;6.03;;;2.75;;
81952;SDS011;71454;55.476;14.282;2023-07-29T10:35:10;5.90;;;2.58;;
81952;SDS011;71454;55.476;14.282;2023-07-29T10:37:37;5.97;;;2.55;;
81952;SDS011;71454;55.476;14.282;2023-07-29T10:40:05;6.78;;;2.47;;
81952;SDS011;71454;55.476;14.282;2023-07-29T10:42:31;5.80;;;2.08;;
81952;SDS011;71454;55.476;14.282;2023-07-29T10:44:57;6.95;;;2.70;;
81952;SDS011;71454;55.476;14.282;2023-07-29T10:47:26;7.00;;;2.63;;
81952;SDS011;71454;55.476;14.282;2023-07-29T10:49:59;8.15;;;2.90;;
81952;SDS011;71454;55.476;14.282;2023-07-29T10:52:42;6.38;;;2.80;;
81952;SDS011;71454;55.476;14.282;2023-07-29T11:00:59;7.35;;;2.90;;
81952;SDS011;71454;55.476;14.282;2023-07-29T11:03:24;6.45;;;2.85;;
81952;SDS011;71454;55.476;14.282;2023-07-29T11:05:53;8.30;;;3.47;;
81952;SDS011;71454;55.476;14.282;2023-07-29T11:08:20;7.57;;;3.42;;
81952;SDS011;71454;55.476;14.282;2023-07-29T11:11:01;8.45;;;4.05;;
81952;SDS011;71454;55.476;14.282;2023-07-29T11:13:27;8.25;;;4.45;;
81952;SDS011;71454;55.476;14.282;2023-07-29T11:15:53;9.98;;;4.70;;
81952;SDS011;71454;55.476;14.282;2023-07-29T11:18:20;9.50;;;4.88;;
81952;SDS011;71454;55.476;14.282;2023-07-29T11:20:45;11.80;;;6.13;;
81952;SDS011;71454;55.476;14.282;2023-07-29T11:23:11;13.35;;;6.43;;
81952;SDS011;71454;55.476;14.282;2023-07-29T11:25:36;15.27;;;7.20;;
81952;SDS011;71454;55.476;14.282;2023-07-29T11:28:03;19.88;;;7.45;;
81952;SDS011;71454;55.476;14.282;2023-07-29T11:30:28;15.77;;;7.72;;
81952;SDS011;71454;55.476;14.282;2023-07-29T11:32:58;14.80;;;7.30;;
81952;SDS011;71454;55.476;14.282;2023-07-29T11:35:24;17.25;;;8.55;;
81952;SDS011;71454;55.476;14.282;2023-07-29T11:37:51;15.63;;;8.55;;
81952;SDS011;71454;55.476;14.282;2023-07-29T11:40:18;20.35;;;9.50;;
81952;SDS011;71454;55.476;14.282;2023-07-29T11:42:45;15.63;;;8.98;;
81952;SDS011;71454;55.476;14.282;2023-07-29T11:45:12;16.73;;;9.93;;
81952;SDS011;71454;55.476;14.282;2023-07-29T11:47:38;17.70;;;9.30;;
81952;SDS011;71454;55.476;14.282;2023-07-29T11:50:04;16.52;;;8.35;;
81952;SDS011;71454;55.476;14.282;2023-07-29T11:52:36;12.90;;;8.23;;
81952;SDS011;71454;55.476;14.282;2023-07-29T11:55:02;18.52;;;8.80;;
81952;SDS011;71454;55.476;14.282;2023-07-29T11:57:35;18.75;;;8.57;;
81952;SDS011;71454;55.476;14.282;2023-07-29T12:00:05;16.55;;;8.80;;
81952;SDS011;71454;55.476;14.282;2023-07-29T12:02:32;22.10;;;8.50;;
81952;SDS011;71454;55.476;14.282;2023-07-29T12:04:58;14.80;;;8.70;;
81952;SDS011;71454;55.476;14.282;2023-07-29T12:07:23;14.98;;;8.52;;
81952;SDS011;71454;55.476;14.282;2023-07-29T12:09:49;13.75;;;7.70;;
81952;SDS011;71454;55.476;14.282;2023-07-29T12:12:15;18.30;;;8.90;;
81952;SDS011;71454;55.476;14.282;2023-07-29T12:14:43;16.02;;;8.35;;
81952;SDS011;71454;55.476;14.282;2023-07-29T12:17:10;14.52;;;8.63;;
81952;SDS011;71454;55.476;14.282;2023-07-29T12:19:36;15.90;;;8.98;;
81952;SDS011;71454;55.476;14.282;2023-07-29T12:22:03;18.05;;;8.38;;
81952;SDS011;71454;55.476;14.282;2023-07-29T12:24:33;18.50;;;9.18;;
81952;SDS011;71454;55.476;14.282;2023-07-29T12:26:59;15.77;;;8.68;;
81952;SDS011;71454;55.476;14.282;2023-07-29T12:29:25;15.27;;;8.48;;
81952;SDS011;71454;55.476;14.282;2023-07-29T12:32:01;14.80;;;9.27;;
81952;SDS011;71454;55.476;14.282;2023-07-29T12:34:31;16.98;;;8.27;;
81952;SDS011;71454;55.476;14.282;2023-07-29T12:36:59;14.35;;;8.32;;
81952;SDS011;71454;55.476;14.282;2023-07-29T12:39:35;16.23;;;7.32;;
81952;SDS011;71454;55.476;14.282;2023-07-29T12:42:04;16.17;;;7.28;;
81952;SDS011;71454;55.476;14.282;2023-07-29T12:44:31;13.65;;;7.95;;
81952;SDS011;71454;55.476;14.282;2023-07-29T12:46:57;14.23;;;8.10;;
81952;SDS011;71454;55.476;14.282;2023-07-29T12:49:23;15.60;;;8.20;;
81952;SDS011;71454;55.476;14.282;2023-07-29T12:51:48;15.80;;;8.18;;
81952;SDS011;71454;55.476;14.282;2023-07-29T12:54:14;15.70;;;8.65;;
81952;SDS011;71454;55.476;14.282;2023-07-29T12:56:39;15.70;;;7.60;;
81952;SDS011;71454;55.476;14.282;2023-07-29T12:59:05;15.77;;;8.38;;
81952;SDS011;71454;55.476;14.282;2023-07-29T13:01:30;13.63;;;7.28;;
81952;SDS011;71454;55.476;14.282;2023-07-29T13:03:56;13.18;;;7.53;;
81952;SDS011;71454;55.476;14.282;2023-07-29T13:06:22;16.02;;;7.78;;
81952;SDS011;71454;55.476;14.282;2023-07-29T13:08:47;14.57;;;8.52;;
81952;SDS011;71454;55.476;14.282;2023-07-29T13:11:13;13.30;;;7.97;;
81952;SDS011;71454;55.476;14.282;2023-07-29T13:13:39;14.77;;;8.18;;
81952;SDS011;71454;55.476;14.282;2023-07-29T13:16:05;12.77;;;8.10;;
81952;SDS011;71454;55.476;14.282;2023-07-29T13:18:31;13.57;;;7.80;;
81952;SDS011;71454;55.476;14.282;2023-07-29T13:20:57;13.23;;;7.55;;
81952;SDS011;71454;55.476;14.282;2023-07-29T13:23:22;13.02;;;7.35;;
81952;SDS011;71454;55.476;14.282;2023-07-29T13:25:47;13.10;;;7.13;;
81952;SDS011;71454;55.476;14.282;2023-07-29T13:28:13;14.30;;;6.82;;
81952;SDS011;71454;55.476;14.282;2023-07-29T13:30:39;12.63;;;6.72;;
81952;SDS011;71454;55.476;14.282;2023-07-29T13:33:08;10.90;;;7.28;;
81952;SDS011;71454;55.476;14.282;2023-07-29T13:35:33;12.00;;;7.43;;
81952;SDS011;71454;55.476;14.282;2023-07-29T13:37:59;11.88;;;6.10;;
81952;SDS011;71454;55.476;14.282;2023-07-29T13:40:25;10.85;;;6.65;;
81952;SDS011;71454;55.476;14.282;2023-07-29T13:42:50;9.85;;;6.00;;
81952;SDS011;71454;55.476;14.282;2023-07-29T13:45:20;10.07;;;5.95;;
81952;SDS011;71454;55.476;14.282;2023-07-29T13:47:45;13.07;;;6.60;;
81952;SDS011;71454;55.476;14.282;2023-07-29T13:50:11;9.95;;;6.05;;
81952;SDS011;71454;55.476;14.282;2023-07-29T13:52:37;11.18;;;6.47;;
81952;SDS011;71454;55.476;14.282;2023-07-29T13:55:06;12.95;;;5.40;;
81952;SDS011;71454;55.476;14.282;2023-07-29T13:57:32;13.75;;;6.03;;
81952;SDS011;71454;55.476;14.282;2023-07-29T13:59:58;11.02;;;5.70;;
81952;SDS011;71454;55.476;14.282;2023-07-29T14:02:29;10.45;;;5.30;;
81952;SDS011;71454;55.476;14.282;2023-07-29T14:04:56;9.93;;;5.28;;
81952;SDS011;71454;55.476;14.282;2023-07-29T14:07:22;10.65;;;4.93;;
81952;SDS011;71454;55.476;14.282;2023-07-29T14:09:47;9.63;;;5.25;;
81952;SDS011;71454;55.476;14.282;2023-07-29T14:12:12;10.10;;;5.15;;
81952;SDS011;71454;55.476;14.282;2023-07-29T14:14:39;9.80;;;5.55;;
81952;SDS011;71454;55.476;14.282;2023-07-29T14:17:05;11.32;;;5.85;;
81952;SDS011;71454;55.476;14.282;2023-07-29T14:19:31;10.13;;;5.75;;
81952;SDS011;71454;55.476;14.282;2023-07-29T14:21:56;13.88;;;5.90;;
81952;SDS011;71454;55.476;14.282;2023-07-29T14:24:22;9.68;;;5.93;;
81952;SDS011;71454;55.476;14.282;2023-07-29T14:26:47;11.48;;;6.90;;
81952;SDS011;71454;55.476;14.282;2023-07-29T14:29:13;10.90;;;6.70;;
81952;SDS011;71454;55.476;14.282;2023-07-29T14:31:38;13.48;;;7.35;;
81952;SDS011;71454;55.476;14.282;2023-07-29T14:34:04;10.88;;;6.68;;
81952;SDS011;71454;55.476;14.282;2023-07-29T14:36:29;13.43;;;7.00;;
81952;SDS011;71454;55.476;14.282;2023-07-29T14:38:55;11.88;;;7.15;;